LPB weather

El Alto International Airport
La Paz / El Alto, La Paz Department, Bolivia

Public forecast

Using degrees Celsius for public forecast. Weather courtesy of forecast.io.

METAR (pilot weather report)

Retrieved 2018/08/14 09:00 UTC (14 minutes ago):

SLLP 140900Z 01005KT 9999 FEW010 SCT200 00/M14 Q1037

TAF (pilot weather forecast)

Forecast is more than 12 hours old.

Retrieved 2018/08/12 18:50 UTC (2 days ago):

TAF COR SLLP 121600Z 1218/1318 24010KT 9999 FEW020 TX16/1220Z TNM03/ 1310Z TEMPO 1219/1222 13012KT FEW023 FEW025CB BECMG 1223/1301 06007KT PROB30 TEMPO 1307/1310 3000E VCFG